createdAt,value
2022-12-08T00:00:32.437Z,3.15
2022-12-08T00:05:53.126Z,3.16
2022-12-08T00:10:54.711Z,3.13
2022-12-08T00:16:05.357Z,3.11
2022-12-08T00:21:07.054Z,3.09
2022-12-08T00:26:08.938Z,3.02
2022-12-08T00:31:11.861Z,2.98
2022-12-08T00:36:14.595Z,3.02
2022-12-08T00:41:44.901Z,3.00
2022-12-08T00:46:48.144Z,3.01
2022-12-08T00:51:50.123Z,2.95
2022-12-08T00:56:51.973Z,3.01
2022-12-08T01:01:53.601Z,3.02
2022-12-08T01:06:55.273Z,3.05
2022-12-08T01:11:57.113Z,3.05
2022-12-08T01:16:58.980Z,3.09
2022-12-08T01:22:00.600Z,3.17
2022-12-08T01:27:02.283Z,3.13
2022-12-08T01:32:04.047Z,3.06
2022-12-08T01:37:06.078Z,3.09
2022-12-08T01:42:20.356Z,3.09
2022-12-08T01:47:24.749Z,3.11
2022-12-08T01:52:36.894Z,3.15
2022-12-08T01:57:45.144Z,3.20
2022-12-08T02:03:02.230Z,3.23
2022-12-08T02:08:08.697Z,3.26
2022-12-08T02:13:17.927Z,3.20
2022-12-08T02:18:22.358Z,3.23
2022-12-08T02:23:39.154Z,3.22
2022-12-08T02:28:58.020Z,3.27
2022-12-08T02:34:17.851Z,3.26
2022-12-08T02:39:36.296Z,3.28
2022-12-08T02:44:48.445Z,3.24
2022-12-08T02:49:50.099Z,3.26
2022-12-08T02:54:55.727Z,3.22
2022-12-08T03:00:06.876Z,3.21
2022-12-08T03:05:11.770Z,3.25
2022-12-08T03:10:25.487Z,3.31
2022-12-08T03:15:27.640Z,3.32
2022-12-08T03:20:31.147Z,3.26
2022-12-08T03:25:37.976Z,3.32
2022-12-08T03:30:42.171Z,3.35
2022-12-08T03:35:45.384Z,3.22
2022-12-08T03:41:06.960Z,3.03
2022-12-08T03:46:08.577Z,3.08
2022-12-08T03:51:10.301Z,3.24
2022-12-08T03:56:33.305Z,3.29
2022-12-08T04:01:34.959Z,3.19
2022-12-08T04:06:36.572Z,3.22
2022-12-08T04:11:38.180Z,3.31
2022-12-08T04:16:40.103Z,3.19
2022-12-08T04:21:41.749Z,3.24
2022-12-08T04:26:43.391Z,3.19
2022-12-08T04:31:45.121Z,3.19
2022-12-08T04:36:46.811Z,3.21
2022-12-08T04:41:48.400Z,3.22
2022-12-08T04:46:50.075Z,3.26
2022-12-08T04:51:51.704Z,3.26
2022-12-08T04:56:53.320Z,3.04
2022-12-08T05:01:55.065Z,3.05
2022-12-08T05:06:56.928Z,2.94
2022-12-08T05:11:58.569Z,2.92
2022-12-08T05:17:03.642Z,2.94
2022-12-08T05:22:07.929Z,3.02
2022-12-08T05:27:09.891Z,3.04
2022-12-08T05:32:11.489Z,3.01
2022-12-08T05:37:13.264Z,2.84
2022-12-08T05:42:14.899Z,2.88
2022-12-08T05:47:16.532Z,2.98
2022-12-08T05:52:18.349Z,3.05
2022-12-08T05:57:19.917Z,3.07
2022-12-08T06:02:21.627Z,3.16
2022-12-08T06:07:23.356Z,3.26
2022-12-08T06:12:24.996Z,3.38
2022-12-08T06:17:26.589Z,3.53
2022-12-08T06:22:28.929Z,3.64
2022-12-08T06:27:30.965Z,3.73
2022-12-08T06:32:32.756Z,3.80
2022-12-08T06:37:34.429Z,3.85
2022-12-08T06:42:46.539Z,3.86
2022-12-08T06:47:48.193Z,3.83
2022-12-08T06:53:01.133Z,3.91
2022-12-08T06:58:06.596Z,3.97
2022-12-08T07:03:09.925Z,3.97
2022-12-08T07:08:11.878Z,4.00
2022-12-08T07:13:13.511Z,4.00
2022-12-08T07:18:15.136Z,4.02
2022-12-08T07:23:16.867Z,3.97
2022-12-08T07:28:18.505Z,3.94
2022-12-08T07:33:20.096Z,4.00
2022-12-08T07:38:21.764Z,3.97
2022-12-08T07:43:23.781Z,3.97
2022-12-08T07:48:25.569Z,4.03
2022-12-08T07:53:27.190Z,4.05
2022-12-08T07:58:28.772Z,4.06
2022-12-08T08:03:31.039Z,4.11
2022-12-08T08:08:32.708Z,4.20
2022-12-08T08:13:34.521Z,4.30
2022-12-08T08:18:37.791Z,4.40
2022-12-08T08:23:39.570Z,4.53
2022-12-08T08:28:41.624Z,4.66
2022-12-08T08:33:43.203Z,4.78
2022-12-08T08:38:44.943Z,4.84
2022-12-08T08:43:46.672Z,4.82
2022-12-08T08:48:48.431Z,4.87
2022-12-08T08:53:50.103Z,4.89
2022-12-08T08:58:53.150Z,4.95
2022-12-08T09:03:56.280Z,4.94
2022-12-08T09:08:57.946Z,4.99
2022-12-08T09:13:59.724Z,5.03
2022-12-08T09:19:02.380Z,5.09
2022-12-08T09:24:04.392Z,5.16
2022-12-08T09:29:06.033Z,5.21
2022-12-08T09:34:07.840Z,5.30
2022-12-08T09:39:09.774Z,5.27
2022-12-08T09:44:23.590Z,5.36
2022-12-08T09:49:39.398Z,5.46
2022-12-08T09:54:42.788Z,5.50
2022-12-08T09:59:54.877Z,5.50
2022-12-08T10:04:58.837Z,5.64
2022-12-08T10:10:25.320Z,5.66
2022-12-08T10:16:05.862Z,5.66
2022-12-08T10:21:20.463Z,5.71
2022-12-08T10:26:22.813Z,5.71
2022-12-08T10:31:25.613Z,5.71
2022-12-08T10:36:49.436Z,5.72
2022-12-08T10:41:51.638Z,5.77
2022-12-08T10:46:53.368Z,5.76
2022-12-08T10:51:55.085Z,5.74
2022-12-08T10:56:57.351Z,5.79
2022-12-08T11:02:00.771Z,5.91
2022-12-08T11:07:05.386Z,5.96
2022-12-08T11:12:08.502Z,6.05
2022-12-08T11:17:25.511Z,6.01
2022-12-08T11:22:37.764Z,6.14
2022-12-08T11:27:45.491Z,6.19
2022-12-08T11:32:50.782Z,6.22
2022-12-08T11:38:03.025Z,6.19
2022-12-08T11:43:18.663Z,6.22
2022-12-08T11:48:32.204Z,6.16
2022-12-08T11:53:57.165Z,6.19
2022-12-08T11:59:06.753Z,6.20
2022-12-08T12:04:21.391Z,6.17
2022-12-08T12:09:44.851Z,5.98
2022-12-08T12:15:11.825Z,5.96
2022-12-08T12:20:57.536Z,5.94
2022-12-08T12:26:02.295Z,5.94
2022-12-08T12:31:12.058Z,6.01
2022-12-08T12:36:15.754Z,5.92
2022-12-08T12:41:27.774Z,5.96
2022-12-08T12:46:29.588Z,5.85
2022-12-08T12:51:53.958Z,5.75
2022-12-08T12:57:16.500Z,5.76
2022-12-08T13:02:40.866Z,5.71
2022-12-08T13:07:50.344Z,5.69
2022-12-08T13:13:07.269Z,5.64
2022-12-08T13:18:20.106Z,5.56
2022-12-08T13:23:27.090Z,5.57
2022-12-08T13:28:31.149Z,5.56
2022-12-08T13:33:41.197Z,5.52
2022-12-08T13:38:46.636Z,5.51
2022-12-08T13:44:39.116Z,5.44
2022-12-08T13:55:58.699Z,5.40
2022-12-08T14:00:21.296Z,5.35
2022-12-08T14:05:47.624Z,5.38
2022-12-08T14:10:53.341Z,5.29
2022-12-08T14:15:55.065Z,5.29
2022-12-08T14:21:20.255Z,5.30
2022-12-08T14:26:22.517Z,5.31
2022-12-08T14:31:24.193Z,5.32
2022-12-08T14:36:26.825Z,5.27
2022-12-08T14:41:32.996Z,5.27
2022-12-08T14:46:34.658Z,5.19
2022-12-08T14:51:36.914Z,5.17
2022-12-08T14:56:43.337Z,5.16
2022-12-08T15:01:49.651Z,5.13
2022-12-08T15:07:14.868Z,5.13
2022-12-08T15:12:27.432Z,5.05
2022-12-08T15:17:44.513Z,5.04
2022-12-08T15:22:46.320Z,5.08
2022-12-08T15:27:50.698Z,5.08
2022-12-08T15:32:54.216Z,5.09
2022-12-08T15:37:55.933Z,5.17
2022-12-08T15:42:57.606Z,5.17
2022-12-08T15:47:59.400Z,5.18
2022-12-08T15:53:01.093Z,5.12
2022-12-08T15:58:52.436Z,5.08
2022-12-08T16:09:06.355Z,5.08
2022-12-08T16:15:01.386Z,5.10
2022-12-08T16:19:34.196Z,5.06
2022-12-08T16:24:35.812Z,5.07
2022-12-08T16:29:37.390Z,5.04
2022-12-08T16:34:39.129Z,5.06
2022-12-08T16:39:45.549Z,5.07
2022-12-08T16:44:47.413Z,5.03
2022-12-08T16:49:49.187Z,5.00
2022-12-08T16:54:50.855Z,5.02
2022-12-08T16:59:52.468Z,5.00
2022-12-08T17:04:54.144Z,4.98
2022-12-08T17:09:55.944Z,4.95
2022-12-08T17:14:57.585Z,4.94
2022-12-08T17:19:59.183Z,4.88
2022-12-08T17:25:01.801Z,4.86
2022-12-08T17:30:05.529Z,4.78
2022-12-08T17:35:08.070Z,4.77
2022-12-08T17:40:10.203Z,4.81
2022-12-08T17:45:11.833Z,4.81
2022-12-08T17:50:13.663Z,4.78
2022-12-08T17:55:15.519Z,4.82
2022-12-08T18:00:17.248Z,4.82
2022-12-08T18:05:19.436Z,4.86
2022-12-08T18:10:21.165Z,4.85
2022-12-08T18:15:22.816Z,4.82
2022-12-08T18:20:24.737Z,4.79
2022-12-08T18:25:26.344Z,4.70
2022-12-08T18:30:28.140Z,4.66
2022-12-08T18:35:30.447Z,4.64
2022-12-08T18:40:32.067Z,4.58
2022-12-08T18:45:36.719Z,4.58
2022-12-08T18:50:43.117Z,4.63
2022-12-08T18:55:46.660Z,4.71
2022-12-08T19:00:48.251Z,4.70
2022-12-08T19:05:49.879Z,4.75
2022-12-08T19:10:51.484Z,4.76
2022-12-08T19:15:53.971Z,4.74
2022-12-08T19:20:56.908Z,4.69
2022-12-08T19:25:58.848Z,4.65
2022-12-08T19:31:04.380Z,4.62
2022-12-08T19:36:13.513Z,4.59
2022-12-08T19:41:33.892Z,4.61
2022-12-08T19:46:40.248Z,4.53
2022-12-08T19:51:42.195Z,4.53
2022-12-08T19:56:43.874Z,4.55
2022-12-08T20:01:48.039Z,4.44
2022-12-08T20:06:51.311Z,4.44
2022-12-08T20:11:54.742Z,4.42
2022-12-08T20:16:56.545Z,4.41
2022-12-08T20:21:58.189Z,4.45
2022-12-08T20:26:59.807Z,4.41
2022-12-08T20:32:01.391Z,4.47
2022-12-08T20:37:03.329Z,4.43
2022-12-08T20:42:04.979Z,4.42
2022-12-08T20:47:06.690Z,4.39
2022-12-08T20:52:09.188Z,4.42
2022-12-08T20:57:10.850Z,4.41
2022-12-08T21:02:12.563Z,4.39
2022-12-08T21:07:14.430Z,4.32
2022-12-08T21:12:16.180Z,4.29
2022-12-08T21:17:18.248Z,4.29
2022-12-08T21:22:21.094Z,4.32
2022-12-08T21:27:22.805Z,4.39
2022-12-08T21:32:30.083Z,4.40
2022-12-08T21:37:33.151Z,4.42
2022-12-08T21:42:44.346Z,4.42
2022-12-08T21:47:47.659Z,4.46
2022-12-08T21:52:50.065Z,4.37
2022-12-08T21:57:51.947Z,4.31
2022-12-08T22:02:53.829Z,4.33
2022-12-08T22:07:55.614Z,4.42
2022-12-08T22:12:57.506Z,4.49
2022-12-08T22:17:59.331Z,4.50
2022-12-08T22:23:00.972Z,4.54
2022-12-08T22:28:03.474Z,4.55
2022-12-08T22:33:05.031Z,4.53
2022-12-08T22:38:06.603Z,4.49
2022-12-08T22:43:08.319Z,4.47
2022-12-08T22:48:10.630Z,4.48
2022-12-08T22:53:12.793Z,4.50
2022-12-08T22:58:14.501Z,4.53
2022-12-08T23:03:16.599Z,4.54
2022-12-08T23:08:18.627Z,4.43
2022-12-08T23:13:21.571Z,4.40
2022-12-08T23:18:23.614Z,4.41
2022-12-08T23:23:25.529Z,4.48
2022-12-08T23:28:27.958Z,4.44
2022-12-08T23:33:30.322Z,4.42
2022-12-08T23:38:32.312Z,4.39
2022-12-08T23:43:34.893Z,4.41
2022-12-08T23:48:36.542Z,4.41
2022-12-08T23:53:38.444Z,4.47
2022-12-08T23:58:40.639Z,4.45
